• Join FlightAware (Why Join?)
  • Login
  • US Flag 
05:34AM EDT


 

Airport Tracker/Info


-or-


 

Live Flight TrackerFlight Track Log ✈ SKW6345 ✈ 05-Aug-2013 ✈ KBZN - KSFO

Flight Track Log - Related Links

Times and Time Zones

All times are in EDT time to prevent confusion due to time zone crossing. See the SKW6345 flight status page for this flight to view local times or setup timezone preferences in your user account.

Time Position Orientation Groundspeed Altitude Reporting Facility
EDT Latitude Longitude Course Direction KTS MPH feet Rate Location/Type
10:06PM 45.7989 -111.2183 283° West 219 252 6,000  Level Salt Lake Center
10:08PM 45.7722 -111.2997 245° Southwest 231 266 8,300 1,920 Climbing Salt Lake Center
10:09PM 45.7478 -111.6982 288° West  Level FlightAware Approximate
10:09PM 45.7403 -111.3950 244° Southwest 246 283 10,000  Level Salt Lake Center
10:10PM 45.7792 -111.8397 288° West  Level FlightAware Approximate
10:10PM 45.7136 -111.5028 251° West 273 314 12,200  Level Salt Lake Center
10:11PM 45.8119 -111.9807 290° West  Level FlightAware Approximate
10:11PM 45.6708 -111.5989 238° Southwest 286 329 14,800  Level Salt Lake Center
10:12PM 45.8427 -112.1225 283° West  Level FlightAware Approximate
10:12PM 45.6292 -111.6956 238° Southwest 286 329 16,300  Level Salt Lake Center
10:13PM 45.5819 -111.8014 238° Southwest 308 354 17,300 1,020 Climbing Salt Lake Center
10:14PM 45.5214 -111.9386 238° Southwest 335 386 18,500 1,080 Climbing Salt Lake Center
10:15PM 45.4692 -112.0542 237° Southwest 346 398 19,600 1,140 Climbing Salt Lake Center
10:16PM 45.4167 -112.1725 238° Southwest 352 405 20,900 1,260 Climbing Salt Lake Center
10:17PM 45.3619 -112.2936 237° Southwest 351 404 22,200 1,020 Climbing Salt Lake Center
10:18PM 45.3108 -112.4058 237° Southwest 353 406 23,100 780 Climbing Salt Lake Center
10:19PM 45.2494 -112.5397 237° Southwest 361 415 23,900 720 Climbing Salt Lake Center
10:20PM 45.1956 -112.6594 237° Southwest 372 428 24,600 720 Climbing Salt Lake Center
10:21PM 45.1328 -112.7978 237° Southwest 375 432 25,400 720 Climbing Salt Lake Center
10:22PM 45.0758 -112.9197 237° Southwest 385 443 26,100 840 Climbing Salt Lake Center
10:23PM 45.0114 -113.0608 237° Southwest 384 442 27,200 960 Climbing Salt Lake Center
10:24PM 44.9544 -113.1789 236° Southwest 381 438 28,100 780 Climbing Salt Lake Center
10:25PM 44.9011 -113.2969 238° Southwest 375 432 28,900 780 Climbing Salt Lake Center
10:26PM 44.8358 -113.4353 236° Southwest 380 437 29,800 780 Climbing Salt Lake Center
10:27PM 44.7800 -113.5511 236° Southwest 376 433 30,600 720 Climbing Salt Lake Center
10:28PM 44.7194 -113.6861 238° Southwest 367 422 31,400 660 Climbing Salt Lake Center
10:29PM 44.6639 -113.7986 235° Southwest 364 419 32,000 240 Climbing Salt Lake Center
10:30PM 44.6019 -113.9333 237° Southwest 370 426 32,000  Level Salt Lake Center
10:31PM 44.5417 -114.0581 236° Southwest 376 433 32,000  Level Salt Lake Center
10:32PM 44.4853 -114.1786 237° Southwest 384 442 32,000  Level Salt Lake Center
10:33PM 44.4161 -114.3217 236° Southwest 393 452 32,000  Level Salt Lake Center
10:34PM 44.3561 -114.4453 236° Southwest 399 459 32,000  Level Salt Lake Center
10:35PM 44.2947 -114.5694 235° Southwest 403 464 32,000  Level Salt Lake Center
10:36PM 44.2225 -114.7144 235° Southwest 406 467 32,000  Level Salt Lake Center
10:37PM 44.1619 -114.8392 236° Southwest 406 467 32,000  Level Salt Lake Center
10:38PM 44.0908 -114.9833 236° Southwest 404 465 32,000  Level Salt Lake Center
10:39PM 44.0272 -115.1111 235° Southwest 415 478 32,000  Level Salt Lake Center
10:40PM 43.9658 -115.2353 236° Southwest 405 466 32,000  Level Salt Lake Center
10:41PM 43.8928 -115.3803 235° Southwest 409 471 32,000  Level Salt Lake Center
10:42PM 43.8300 -115.5047 235° Southwest 409 471 32,000  Level Salt Lake Center
10:43PM 43.7561 -115.6494 235° Southwest 410 472 32,000  Level Salt Lake Center
10:45PM 43.6944 -115.7750 236° Southwest 411 473 32,000  Level Salt Lake Center
10:46PM 43.6306 -115.9006 235° Southwest 415 478 32,000  Level Salt Lake Center
10:47PM 43.5561 -116.0456 235° Southwest 414 476 32,000  Level Salt Lake Center
10:48PM 43.4908 -116.1703 234° Southwest 417 480 32,000  Level Salt Lake Center
10:49PM 43.4169 -116.3158 235° Southwest 417 480 32,000  Level Salt Lake Center
10:50PM 43.3525 -116.4394 234° Southwest 416 479 32,000  Level Salt Lake Center
10:51PM 43.2875 -116.5617 234° Southwest 412 474 32,000  Level Salt Lake Center
10:52PM 43.2117 -116.7072 234° Southwest 417 480 32,000  Level Salt Lake Center
10:53PM 43.1469 -116.8322 235° Southwest 418 481 32,000  Level Salt Lake Center
10:54PM 43.0697 -116.9783 234° Southwest 422 486 32,000  Level Salt Lake Center
10:55PM 43.0042 -117.1022 234° Southwest 420 483 32,000  Level Salt Lake Center
10:56PM 42.9269 -117.2467 234° Southwest 423 487 32,000  Level Salt Lake Center
10:57PM 42.8606 -117.3678 233° Southwest 418 481 32,000  Level Salt Lake Center
10:58PM 42.7939 -117.4925 234° Southwest 423 487 32,000  Level Salt Lake Center
10:59PM 42.7164 -117.6364 234° Southwest 424 488 32,000  Level Salt Lake Center
11:00PM 42.6503 -117.7603 234° Southwest 422 486 32,000  Level Salt Lake Center
11:01PM 42.5572 -117.8856 225° Southwest 426 490 32,000  Level Salt Lake Center
11:02PM 42.4547 -117.9514 205° Southwest 428 493 32,000  Level Salt Lake Center
11:03PM 42.3556 -118.0267 209° Southwest 431 496 32,000  Level Salt Lake Center
11:04PM 42.2619 -118.1403 222° Southwest 425 489 32,000  Level Salt Lake Center
11:05PM 42.1786 -118.2436 223° Southwest 425 489 32,000  Level Salt Lake Center
11:06PM 42.0786 -118.3653 222° Southwest 433 498 32,000  Level Salt Lake Center
11:07PM 41.9944 -118.4683 222° Southwest 429 494 32,000  Level Salt Lake Center
11:08PM 41.8956 -118.5881 222° Southwest 430 495 32,000  Level Salt Lake Center
11:09PM 41.8103 -118.6903 222° Southwest 430 495 32,000  Level Salt Lake Center
11:10PM 41.7106 -118.8100 222° Southwest 431 496 32,000  Level Salt Lake Center
11:11PM 41.6250 -118.9133 222° Southwest 432 497 32,000  Level Salt Lake Center
11:12PM 41.5386 -119.0181 222° Southwest 436 502 32,000  Level Salt Lake Center
11:14PM 41.3819 -119.2033 222° Southwest 432 497 32,000  Level Salt Lake Center
11:15PM 41.2950 -119.3067 222° Southwest 436 502 32,000  Level Salt Lake Center
11:16PM 41.2081 -119.4097 222° Southwest 437 503 32,000  Level Salt Lake Center
11:16PM 41.1633 -119.4625 222° Southwest 436 502 32,000  Level Seattle Center
11:17PM 41.0736 -119.5669 221° Southwest 436 502 32,000  Level Oakland Center
11:18PM 40.9814 -119.6750 222° Southwest 435 501 32,000  Level Seattle Center
11:19PM 40.8906 -119.7817 222° Southwest 436 502 32,000  Level Seattle Center
11:20PM 40.7956 -119.8892 221° Southwest 440 506 32,000  Level Oakland Center
11:21PM 40.7081 -119.9906 221° Southwest 434 499 32,000  Level Oakland Center
11:22PM 40.6144 -120.0986 221° Southwest 439 505 32,000  Level Oakland Center
11:23PM 40.5214 -120.2058 221° Southwest 440 506 32,000  Level Oakland Center
11:24PM 40.4286 -120.3100 221° Southwest 440 506 32,000  Level Oakland Center
11:26PM 40.3208 -120.4347 221° Southwest 435 501 32,000  Level Seattle Center
11:27PM 40.2261 -120.5408 221° Southwest 442 509 32,000  Level Seattle Center
11:27PM 40.1303 -120.6467 220° Southwest 444 511 32,000  Level Oakland Center
11:28PM 40.0369 -120.7531 221° Southwest 446 513 32,000  Level Oakland Center
11:30PM 39.9442 -120.8567 221° Southwest 447 514 32,000  Level Oakland Center
11:31PM 39.8497 -120.9614 220° Southwest 447 514 32,000  Level Oakland Center
11:32PM 39.7544 -121.0664 220° Southwest 450 518 32,000  Level Oakland Center
11:33PM 39.6578 -121.1739 221° Southwest 448 516 32,000  Level Oakland Center
11:34PM 39.5625 -121.2783 220° Southwest 448 516 32,000  Level Oakland Center
11:35PM 39.4703 -121.3811 221° Southwest 451 519 32,000  Level Oakland Center
11:36PM 39.3758 -121.4853 220° Southwest 450 518 32,000  Level Oakland Center
11:37PM 39.2803 -121.5881 220° Southwest 451 519 32,000  Level Oakland Center
11:38PM 39.1667 -121.7128 220° Southwest 449 517 32,000  Level Oakland Center
11:39PM 39.0714 -121.8161 220° Southwest 450 518 32,000  Level Oakland Center
11:40PM 38.9764 -121.9181 220° Southwest 448 516 32,000  Level Oakland Center
11:41PM 38.8817 -122.0200 220° Southwest 446 513 32,000  Level Oakland Center
11:42PM 38.7867 -122.1211 220° Southwest 446 513 32,000  Level Oakland Center
11:43PM 38.6931 -122.2219 220° Southwest 443 510 32,000 -240 Level Oakland Center
11:44PM 38.5994 -122.3206 219° Southwest 448 516 31,600 -1,680 Descending Oakland Center
11:45PM 38.5031 -122.4228 220° Southwest 451 519 28,600 -3,240 Descending Oakland Center
11:46PM 38.3908 -122.5419 220° Southwest 441 507 25,100 -3,240 Descending Oakland Center
11:47PM 38.2981 -122.6369 219° Southwest 433 498 22,100 -3,000 Descending Oakland Center
11:48PM 38.1914 -122.6586 189° South 396 456 19,000 -3,000 Descending Oakland Center
11:49PM 38.0892 -122.6644 183° South 375 432 16,000 -2,940 Descending Oakland Center
11:50PM 37.9875 -122.6689 182° South 372 428 13,100 -2,460 Descending Oakland Center
11:51PM 37.8919 -122.6594 176° South 367 422 11,000 -1,380 Descending Oakland Center
11:51PM 37.8333 -122.6000 141° Southeast 314 361 11,000 60 Level Northern Cal TRACON
11:52PM 37.7833 -122.5500 142° Southeast 247 284 11,100  Climbing Northern Cal TRACON
11:53PM 37.7333 -122.5000 142° Southeast 242 278 11,100  Level Northern Cal TRACON
11:54PM 37.6833 -122.4333 133° Southeast 245 282 11,100  Level Northern Cal TRACON
11:55PM 37.6333 -122.3833 142° Southeast 211 243 11,100 -120 Level Northern Cal TRACON
11:56PM 37.5833 -122.3500 152° Southeast 210 242 10,900 -660 Descending Northern Cal TRACON
11:57PM 37.5333 -122.3167 152° Southeast 206 237 9,900 -1,200 Descending Northern Cal TRACON
11:58PM 37.4833 -122.3000 165° South 200 230 8,700 -1,320 Descending Northern Cal TRACON
11:59PM 37.4333 -122.3167 195° South 196 226 7,200 -1,260 Descending Northern Cal TRACON
12:00AM 37.4000 -122.2667 130° Southeast 193 222 6,200 -600 Descending Northern Cal TRACON
12:01AM 37.3667 -122.2000 122° Southeast 198 228 6,100 -120 Descending Northern Cal TRACON
12:02AM 37.3750 -122.1736 68° East 203 234 6,000 -420 Descending Oakland Center
12:03AM 37.4086 -122.1164 54° Northeast 206 237 5,400 -1,020 Descending Oakland Center
12:04AM 37.4525 -122.0628 44° Northeast 189 217 4,000 -720 Descending Oakland Center
12:05AM 37.4947 -122.0811 341° North 185 213 4,000 -300 Level Oakland Center
12:06AM 37.5197 -122.1300 303° West 170 196 3,400 -1,080 Descending Oakland Center
12:07AM 37.5386 -122.1842 294° West 169 194 1,900 -840 Descending Oakland Center
12:08AM 37.5608 -122.2339 299° West 167 192 1,800 -120 Descending Oakland Center
12:09AM 37.5792 -122.2778 298° West 155 178 1,700 -540 Descending Oakland Center
12:10AM 37.5967 -122.3186 298° West 143 165 800 -780 Descending Oakland Center
12:11AM 37.6125 -122.3553 299° West 132 152 200 -600 Descending Oakland Center